createdAt,value
2022-10-18T00:03:25.176Z,1021.59
2022-10-18T00:18:25.795Z,1021.78
2022-10-18T00:33:25.926Z,1022.03
2022-10-18T00:48:25.973Z,1022.02
2022-10-18T01:03:26.125Z,1022.11
2022-10-18T01:18:26.209Z,1022.15
2022-10-18T01:33:26.799Z,1022.03
2022-10-18T01:48:26.417Z,1022.04
2022-10-18T02:03:26.518Z,1022.07
2022-10-18T02:18:26.615Z,1022.08
2022-10-18T02:33:26.754Z,1022.10
2022-10-18T02:48:28.085Z,1022.21
2022-10-18T03:03:29.459Z,1022.32
2022-10-18T03:18:31.320Z,1022.34
2022-10-18T03:33:32.696Z,1022.30
2022-10-18T03:48:33.571Z,1022.50
2022-10-18T04:03:33.709Z,1022.68
2022-10-18T04:18:34.268Z,1022.56
2022-10-18T04:33:33.880Z,1022.44
2022-10-18T04:48:33.958Z,1022.33
2022-10-18T05:03:34.049Z,1022.19
2022-10-18T05:18:34.184Z,1022.24
2022-10-18T05:33:34.775Z,1022.31
2022-10-18T05:48:34.895Z,1022.30
2022-10-18T06:03:36.797Z,1022.05
2022-10-18T06:18:36.860Z,1022.03
2022-10-18T06:33:36.941Z,1021.96
2022-10-18T06:48:37.064Z,1022.10
2022-10-18T07:03:37.143Z,1022.46
2022-10-18T07:18:37.794Z,1022.73
2022-10-18T07:33:38.910Z,1022.98
2022-10-18T07:48:39.529Z,1022.94
2022-10-18T08:03:40.104Z,1022.88
2022-10-18T08:18:41.232Z,1022.88
2022-10-18T08:33:40.821Z,1022.86
2022-10-18T08:48:42.338Z,1022.80
2022-10-18T09:03:42.903Z,1022.81
2022-10-18T09:18:44.244Z,1022.81
2022-10-18T09:33:45.711Z,1022.86
2022-10-18T09:48:45.805Z,1022.84
2022-10-18T10:03:45.881Z,1022.84
2022-10-18T10:18:46.494Z,1022.67
2022-10-18T10:33:47.113Z,1022.58
2022-10-18T10:48:49.006Z,1022.46
2022-10-18T11:03:49.161Z,1022.58
2022-10-18T11:18:49.226Z,1022.50
2022-10-18T11:34:09.280Z,1022.28
2022-10-18T11:48:54.917Z,1022.16
2022-10-18T12:03:54.495Z,1022.07
2022-10-18T12:18:56.385Z,1022.09
2022-10-18T12:33:58.748Z,1022.00
2022-10-18T12:48:58.496Z,1021.96
2022-10-18T13:03:58.612Z,1021.90
2022-10-18T13:18:58.696Z,1021.86
2022-10-18T13:34:00.186Z,1021.81
2022-10-18T13:49:00.197Z,1021.93
2022-10-18T14:04:01.563Z,1022.07
2022-10-18T14:19:02.139Z,1022.22
2022-10-18T14:34:02.725Z,1022.26
2022-10-18T14:49:04.580Z,1022.35
2022-10-18T15:04:04.765Z,1022.30
2022-10-18T15:19:05.302Z,1022.22
2022-10-18T15:34:05.610Z,1022.29
2022-10-18T15:49:05.700Z,1022.22
2022-10-18T16:04:06.487Z,1022.24
2022-10-18T16:19:07.827Z,1022.29
2022-10-18T16:34:09.013Z,1022.46
2022-10-18T16:49:10.963Z,1022.46
2022-10-18T17:04:11.979Z,1022.47
2022-10-18T17:19:13.330Z,1022.65
2022-10-18T17:34:16.462Z,1022.75
2022-10-18T17:49:18.557Z,1022.78
2022-10-18T18:04:19.116Z,1022.99
2022-10-18T18:19:19.261Z,1023.04
2022-10-18T18:34:19.342Z,1023.04
2022-10-18T18:49:18.986Z,1023.07
2022-10-18T19:04:19.614Z,1023.07
2022-10-18T19:19:21.797Z,1023.13
2022-10-18T19:34:23.463Z,1023.16
2022-10-18T19:49:24.071Z,1023.33
2022-10-18T20:04:25.495Z,1023.42
2022-10-18T20:19:25.599Z,1023.46
2022-10-18T20:34:25.711Z,1023.59
2022-10-18T20:49:26.349Z,1023.58
2022-10-18T21:04:27.437Z,1023.47
2022-10-18T21:19:28.586Z,1023.60
2022-10-18T21:34:29.179Z,1023.51
2022-10-18T21:49:29.309Z,1023.42
2022-10-18T22:04:29.405Z,1023.45
2022-10-18T22:19:30.793Z,1023.24
2022-10-18T22:34:32.156Z,1023.22
2022-10-18T22:49:33.092Z,1023.12
2022-10-18T23:04:33.217Z,1023.15
2022-10-18T23:19:33.835Z,1023.16
2022-10-18T23:34:34.398Z,1023.20
2022-10-18T23:49:34.585Z,1023.08
